sensor_id;sensor_type;location;lat;lon;timestamp;temperature;humidity
22035;DHT22;11181;51.002;4.356;2023-03-23T00:01:27;13.80;99.90
22035;DHT22;11181;51.002;4.356;2023-03-23T00:03:56;13.80;99.90
22035;DHT22;11181;51.002;4.356;2023-03-23T00:06:24;13.80;99.90
22035;DHT22;11181;51.002;4.356;2023-03-23T00:08:54;13.80;99.90
22035;DHT22;11181;51.002;4.356;2023-03-23T00:11:26;13.80;99.90
22035;DHT22;11181;51.002;4.356;2023-03-23T00:13:55;13.90;99.90
22035;DHT22;11181;51.002;4.356;2023-03-23T00:16:28;13.90;99.90
22035;DHT22;11181;51.002;4.356;2023-03-23T00:18:59;13.90;99.90
22035;DHT22;11181;51.002;4.356;2023-03-23T00:21:28;13.90;99.90
22035;DHT22;11181;51.002;4.356;2023-03-23T00:24:03;13.90;99.90
22035;DHT22;11181;51.002;4.356;2023-03-23T00:26:32;13.90;99.90
22035;DHT22;11181;51.002;4.356;2023-03-23T00:29:01;13.80;99.90
22035;DHT22;11181;51.002;4.356;2023-03-23T00:31:28;13.80;99.90
22035;DHT22;11181;51.002;4.356;2023-03-23T00:34:01;13.90;99.90
22035;DHT22;11181;51.002;4.356;2023-03-23T00:36:29;13.90;99.90
22035;DHT22;11181;51.002;4.356;2023-03-23T00:38:57;14.00;99.90
22035;DHT22;11181;51.002;4.356;2023-03-23T00:41:26;13.90;99.90
22035;DHT22;11181;51.002;4.356;2023-03-23T00:43:55;14.00;99.90
22035;DHT22;11181;51.002;4.356;2023-03-23T00:46:22;14.00;99.90
22035;DHT22;11181;51.002;4.356;2023-03-23T00:48:50;14.00;99.90
22035;DHT22;11181;51.002;4.356;2023-03-23T00:51:18;14.00;99.90
22035;DHT22;11181;51.002;4.356;2023-03-23T00:53:45;14.00;99.90
22035;DHT22;11181;51.002;4.356;2023-03-23T00:56:13;14.00;99.90
22035;DHT22;11181;51.002;4.356;2023-03-23T00:58:41;14.00;99.90
22035;DHT22;11181;51.002;4.356;2023-03-23T01:01:09;14.00;99.90
22035;DHT22;11181;51.002;4.356;2023-03-23T01:03:36;13.90;99.90
22035;DHT22;11181;51.002;4.356;2023-03-23T01:06:08;13.90;99.90
22035;DHT22;11181;51.002;4.356;2023-03-23T01:08:38;13.90;99.90
22035;DHT22;11181;51.002;4.356;2023-03-23T01:11:11;13.90;99.90
22035;DHT22;11181;51.002;4.356;2023-03-23T01:13:38;14.00;99.90
22035;DHT22;11181;51.002;4.356;2023-03-23T01:16:07;14.00;99.90
22035;DHT22;11181;51.002;4.356;2023-03-23T01:18:35;14.00;99.90
22035;DHT22;11181;51.002;4.356;2023-03-23T01:21:04;14.00;99.90
22035;DHT22;11181;51.002;4.356;2023-03-23T01:23:32;14.00;99.90
22035;DHT22;11181;51.002;4.356;2023-03-23T01:26:03;14.00;99.90
22035;DHT22;11181;51.002;4.356;2023-03-23T01:28:30;14.00;99.90
22035;DHT22;11181;51.002;4.356;2023-03-23T01:31:00;14.10;99.90
22035;DHT22;11181;51.002;4.356;2023-03-23T01:33:29;14.00;99.90
22035;DHT22;11181;51.002;4.356;2023-03-23T01:35:56;13.90;99.90
22035;DHT22;11181;51.002;4.356;2023-03-23T01:38:23;13.90;99.90
22035;DHT22;11181;51.002;4.356;2023-03-23T01:40:50;13.90;99.90
22035;DHT22;11181;51.002;4.356;2023-03-23T01:43:17;14.00;99.90
22035;DHT22;11181;51.002;4.356;2023-03-23T01:45:44;13.90;99.90
22035;DHT22;11181;51.002;4.356;2023-03-23T01:48:15;14.00;99.90
22035;DHT22;11181;51.002;4.356;2023-03-23T01:50:50;14.10;99.90
22035;DHT22;11181;51.002;4.356;2023-03-23T01:53:20;14.10;99.90
22035;DHT22;11181;51.002;4.356;2023-03-23T01:55:48;14.10;99.90
22035;DHT22;11181;51.002;4.356;2023-03-23T01:58:17;13.90;99.90
22035;DHT22;11181;51.002;4.356;2023-03-23T02:00:46;14.00;99.90
22035;DHT22;11181;51.002;4.356;2023-03-23T02:03:14;14.00;99.90
22035;DHT22;11181;51.002;4.356;2023-03-23T02:05:43;14.20;99.90
22035;DHT22;11181;51.002;4.356;2023-03-23T02:08:12;14.20;99.90
22035;DHT22;11181;51.002;4.356;2023-03-23T02:10:41;14.20;99.90
22035;DHT22;11181;51.002;4.356;2023-03-23T02:13:09;14.20;99.90
22035;DHT22;11181;51.002;4.356;2023-03-23T02:15:45;14.10;99.90
22035;DHT22;11181;51.002;4.356;2023-03-23T02:18:25;14.00;99.90
22035;DHT22;11181;51.002;4.356;2023-03-23T02:21:16;13.90;99.90
22035;DHT22;11181;51.002;4.356;2023-03-23T02:26:58;13.90;99.90
22035;DHT22;11181;51.002;4.356;2023-03-23T02:29:46;13.90;99.90
22035;DHT22;11181;51.002;4.356;2023-03-23T02:32:28;14.00;99.90
22035;DHT22;11181;51.002;4.356;2023-03-23T02:35:03;13.90;99.90
22035;DHT22;11181;51.002;4.356;2023-03-23T02:37:36;13.90;99.90
22035;DHT22;11181;51.002;4.356;2023-03-23T02:40:08;13.90;99.90
22035;DHT22;11181;51.002;4.356;2023-03-23T02:42:39;13.80;99.90
22035;DHT22;11181;51.002;4.356;2023-03-23T02:45:10;13.80;99.90
22035;DHT22;11181;51.002;4.356;2023-03-23T02:47:39;13.70;99.90
22035;DHT22;11181;51.002;4.356;2023-03-23T02:50:12;13.70;99.90
22035;DHT22;11181;51.002;4.356;2023-03-23T02:52:41;13.80;99.90
22035;DHT22;11181;51.002;4.356;2023-03-23T02:55:11;13.80;99.90
22035;DHT22;11181;51.002;4.356;2023-03-23T02:57:39;13.80;99.90
22035;DHT22;11181;51.002;4.356;2023-03-23T03:00:11;13.80;99.90
22035;DHT22;11181;51.002;4.356;2023-03-23T03:02:39;13.80;99.90
22035;DHT22;11181;51.002;4.356;2023-03-23T03:05:16;13.90;99.90
22035;DHT22;11181;51.002;4.356;2023-03-23T03:08:00;13.80;99.90
22035;DHT22;11181;51.002;4.356;2023-03-23T03:10:32;13.70;99.90
22035;DHT22;11181;51.002;4.356;2023-03-23T03:13:07;13.70;99.90
22035;DHT22;11181;51.002;4.356;2023-03-23T03:15:40;13.70;99.90
22035;DHT22;11181;51.002;4.356;2023-03-23T03:18:14;13.70;99.90
22035;DHT22;11181;51.002;4.356;2023-03-23T03:20:45;13.70;99.90
22035;DHT22;11181;51.002;4.356;2023-03-23T03:23:14;13.80;99.90
22035;DHT22;11181;51.002;4.356;2023-03-23T03:25:44;13.70;99.90
22035;DHT22;11181;51.002;4.356;2023-03-23T03:28:15;13.60;99.90
22035;DHT22;11181;51.002;4.356;2023-03-23T03:30:43;13.60;99.90
22035;DHT22;11181;51.002;4.356;2023-03-23T03:33:12;13.60;99.90
22035;DHT22;11181;51.002;4.356;2023-03-23T03:35:40;13.60;99.90
22035;DHT22;11181;51.002;4.356;2023-03-23T03:38:10;13.60;99.90
22035;DHT22;11181;51.002;4.356;2023-03-23T03:40:38;13.70;99.90
22035;DHT22;11181;51.002;4.356;2023-03-23T03:43:06;13.70;99.90
22035;DHT22;11181;51.002;4.356;2023-03-23T03:45:33;13.70;99.90
22035;DHT22;11181;51.002;4.356;2023-03-23T03:48:01;13.70;99.90
22035;DHT22;11181;51.002;4.356;2023-03-23T03:50:28;13.70;99.90
22035;DHT22;11181;51.002;4.356;2023-03-23T03:52:55;13.60;99.90
22035;DHT22;11181;51.002;4.356;2023-03-23T03:55:25;13.60;99.90
22035;DHT22;11181;51.002;4.356;2023-03-23T03:57:53;13.60;99.90
22035;DHT22;11181;51.002;4.356;2023-03-23T04:00:21;13.60;99.90
22035;DHT22;11181;51.002;4.356;2023-03-23T04:02:49;13.60;99.90
22035;DHT22;11181;51.002;4.356;2023-03-23T04:05:20;13.60;99.90
22035;DHT22;11181;51.002;4.356;2023-03-23T04:07:47;13.50;99.90
22035;DHT22;11181;51.002;4.356;2023-03-23T04:10:18;13.60;99.90
22035;DHT22;11181;51.002;4.356;2023-03-23T04:12:48;13.60;99.90
22035;DHT22;11181;51.002;4.356;2023-03-23T04:15:15;13.60;99.90
22035;DHT22;11181;51.002;4.356;2023-03-23T04:17:42;13.70;99.90
22035;DHT22;11181;51.002;4.356;2023-03-23T04:20:11;13.60;99.90
22035;DHT22;11181;51.002;4.356;2023-03-23T04:22:42;13.60;99.90
22035;DHT22;11181;51.002;4.356;2023-03-23T04:25:11;13.60;99.90
22035;DHT22;11181;51.002;4.356;2023-03-23T04:27:40;13.60;99.90
22035;DHT22;11181;51.002;4.356;2023-03-23T04:30:13;13.70;99.90
22035;DHT22;11181;51.002;4.356;2023-03-23T04:32:41;13.70;99.90
22035;DHT22;11181;51.002;4.356;2023-03-23T04:35:09;13.60;99.90
22035;DHT22;11181;51.002;4.356;2023-03-23T04:37:38;13.60;99.90
22035;DHT22;11181;51.002;4.356;2023-03-23T04:40:07;13.60;99.90
22035;DHT22;11181;51.002;4.356;2023-03-23T04:42:37;13.60;99.90
22035;DHT22;11181;51.002;4.356;2023-03-23T04:45:06;13.60;99.90
22035;DHT22;11181;51.002;4.356;2023-03-23T04:47:36;13.60;99.90
22035;DHT22;11181;51.002;4.356;2023-03-23T04:50:07;13.60;99.90
22035;DHT22;11181;51.002;4.356;2023-03-23T04:52:35;13.60;99.90
22035;DHT22;11181;51.002;4.356;2023-03-23T04:55:04;13.60;99.90
22035;DHT22;11181;51.002;4.356;2023-03-23T04:57:32;13.60;99.90
22035;DHT22;11181;51.002;4.356;2023-03-23T05:00:00;13.50;99.90
22035;DHT22;11181;51.002;4.356;2023-03-23T05:02:31;13.40;99.90
22035;DHT22;11181;51.002;4.356;2023-03-23T05:05:00;13.30;99.90
22035;DHT22;11181;51.002;4.356;2023-03-23T05:07:27;13.30;99.90
22035;DHT22;11181;51.002;4.356;2023-03-23T05:09:54;13.40;99.90
22035;DHT22;11181;51.002;4.356;2023-03-23T05:12:21;13.40;99.90
22035;DHT22;11181;51.002;4.356;2023-03-23T05:14:48;13.40;99.90
22035;DHT22;11181;51.002;4.356;2023-03-23T05:17:15;13.30;99.90
22035;DHT22;11181;51.002;4.356;2023-03-23T05:19:44;13.30;99.90
22035;DHT22;11181;51.002;4.356;2023-03-23T05:22:14;13.30;99.90
22035;DHT22;11181;51.002;4.356;2023-03-23T05:24:41;13.20;99.90
22035;DHT22;11181;51.002;4.356;2023-03-23T05:27:08;13.30;99.90
22035;DHT22;11181;51.002;4.356;2023-03-23T05:29:35;13.20;99.90
22035;DHT22;11181;51.002;4.356;2023-03-23T05:32:03;13.30;99.90
22035;DHT22;11181;51.002;4.356;2023-03-23T05:34:31;13.20;99.90
22035;DHT22;11181;51.002;4.356;2023-03-23T05:36:58;13.30;99.90
22035;DHT22;11181;51.002;4.356;2023-03-23T05:39:27;13.30;99.90
22035;DHT22;11181;51.002;4.356;2023-03-23T05:41:55;13.30;99.90
22035;DHT22;11181;51.002;4.356;2023-03-23T05:44:22;13.30;99.90
22035;DHT22;11181;51.002;4.356;2023-03-23T05:46:49;13.30;99.90
22035;DHT22;11181;51.002;4.356;2023-03-23T05:49:17;13.30;99.90
22035;DHT22;11181;51.002;4.356;2023-03-23T05:51:44;13.30;99.90
22035;DHT22;11181;51.002;4.356;2023-03-23T05:54:13;13.30;99.90
22035;DHT22;11181;51.002;4.356;2023-03-23T05:56:41;13.30;99.90
22035;DHT22;11181;51.002;4.356;2023-03-23T05:59:08;13.30;99.90
22035;DHT22;11181;51.002;4.356;2023-03-23T06:01:36;13.30;99.90
22035;DHT22;11181;51.002;4.356;2023-03-23T06:04:03;13.40;99.90
22035;DHT22;11181;51.002;4.356;2023-03-23T06:06:30;13.40;99.90
22035;DHT22;11181;51.002;4.356;2023-03-23T06:08:58;13.40;99.90
22035;DHT22;11181;51.002;4.356;2023-03-23T06:11:25;13.30;99.90
22035;DHT22;11181;51.002;4.356;2023-03-23T06:13:53;13.30;99.90
22035;DHT22;11181;51.002;4.356;2023-03-23T06:16:20;13.20;99.90
22035;DHT22;11181;51.002;4.356;2023-03-23T06:18:48;13.30;99.90
22035;DHT22;11181;51.002;4.356;2023-03-23T06:21:15;13.40;99.90
22035;DHT22;11181;51.002;4.356;2023-03-23T06:23:44;13.40;99.90
22035;DHT22;11181;51.002;4.356;2023-03-23T06:26:13;13.30;99.90
22035;DHT22;11181;51.002;4.356;2023-03-23T06:28:42;13.30;99.90
22035;DHT22;11181;51.002;4.356;2023-03-23T06:31:10;13.40;99.90
22035;DHT22;11181;51.002;4.356;2023-03-23T06:33:40;13.40;99.90
22035;DHT22;11181;51.002;4.356;2023-03-23T06:36:07;13.00;99.90
22035;DHT22;11181;51.002;4.356;2023-03-23T06:38:36;12.60;99.90
22035;DHT22;11181;51.002;4.356;2023-03-23T06:41:03;12.30;99.90
22035;DHT22;11181;51.002;4.356;2023-03-23T06:43:30;12.10;99.90
22035;DHT22;11181;51.002;4.356;2023-03-23T06:45:59;11.90;99.90
22035;DHT22;11181;51.002;4.356;2023-03-23T06:48:28;11.80;99.90
22035;DHT22;11181;51.002;4.356;2023-03-23T06:50:56;11.50;99.90
22035;DHT22;11181;51.002;4.356;2023-03-23T06:53:23;11.50;99.90
22035;DHT22;11181;51.002;4.356;2023-03-23T06:55:50;11.40;99.90
22035;DHT22;11181;51.002;4.356;2023-03-23T06:58:17;11.40;99.90
22035;DHT22;11181;51.002;4.356;2023-03-23T07:00:44;11.40;99.90
22035;DHT22;11181;51.002;4.356;2023-03-23T07:03:11;11.40;99.90
22035;DHT22;11181;51.002;4.356;2023-03-23T07:05:39;11.30;99.90
22035;DHT22;11181;51.002;4.356;2023-03-23T07:08:06;11.30;99.90
22035;DHT22;11181;51.002;4.356;2023-03-23T07:10:33;11.30;99.90
22035;DHT22;11181;51.002;4.356;2023-03-23T07:13:00;11.40;99.90
22035;DHT22;11181;51.002;4.356;2023-03-23T07:15:27;11.40;99.90
22035;DHT22;11181;51.002;4.356;2023-03-23T07:17:54;11.50;99.90
22035;DHT22;11181;51.002;4.356;2023-03-23T07:20:21;11.50;99.90
22035;DHT22;11181;51.002;4.356;2023-03-23T07:22:49;11.40;99.90
22035;DHT22;11181;51.002;4.356;2023-03-23T07:25:17;11.30;99.90
22035;DHT22;11181;51.002;4.356;2023-03-23T07:27:45;11.30;99.90
22035;DHT22;11181;51.002;4.356;2023-03-23T07:30:13;11.30;99.90
22035;DHT22;11181;51.002;4.356;2023-03-23T07:32:41;11.30;99.90
22035;DHT22;11181;51.002;4.356;2023-03-23T07:35:08;11.30;99.90
22035;DHT22;11181;51.002;4.356;2023-03-23T07:37:35;11.40;99.90
22035;DHT22;11181;51.002;4.356;2023-03-23T07:40:05;11.50;99.90
22035;DHT22;11181;51.002;4.356;2023-03-23T07:42:41;11.60;99.90
22035;DHT22;11181;51.002;4.356;2023-03-23T07:45:09;11.70;99.90
22035;DHT22;11181;51.002;4.356;2023-03-23T07:47:36;11.80;99.90
22035;DHT22;11181;51.002;4.356;2023-03-23T07:50:04;11.90;99.90
22035;DHT22;11181;51.002;4.356;2023-03-23T07:52:32;12.00;99.90
22035;DHT22;11181;51.002;4.356;2023-03-23T07:54:59;12.10;99.90
22035;DHT22;11181;51.002;4.356;2023-03-23T07:57:29;12.10;99.90
22035;DHT22;11181;51.002;4.356;2023-03-23T07:59:56;12.20;99.90
22035;DHT22;11181;51.002;4.356;2023-03-23T08:02:24;12.30;99.90
22035;DHT22;11181;51.002;4.356;2023-03-23T08:04:52;12.30;99.90
22035;DHT22;11181;51.002;4.356;2023-03-23T08:07:19;12.40;99.90
22035;DHT22;11181;51.002;4.356;2023-03-23T08:09:47;12.50;99.90
22035;DHT22;11181;51.002;4.356;2023-03-23T08:12:14;12.60;99.90
22035;DHT22;11181;51.002;4.356;2023-03-23T08:14:44;12.60;99.90
22035;DHT22;11181;51.002;4.356;2023-03-23T08:17:11;12.60;99.90
22035;DHT22;11181;51.002;4.356;2023-03-23T08:19:38;12.60;99.90
22035;DHT22;11181;51.002;4.356;2023-03-23T08:22:05;12.70;99.90
22035;DHT22;11181;51.002;4.356;2023-03-23T08:24:33;12.70;99.90
22035;DHT22;11181;51.002;4.356;2023-03-23T08:27:00;12.70;99.90
22035;DHT22;11181;51.002;4.356;2023-03-23T08:29:27;12.70;99.90
22035;DHT22;11181;51.002;4.356;2023-03-23T08:31:57;12.70;99.90
22035;DHT22;11181;51.002;4.356;2023-03-23T08:34:24;12.40;99.90
22035;DHT22;11181;51.002;4.356;2023-03-23T08:36:51;12.40;99.90
22035;DHT22;11181;51.002;4.356;2023-03-23T08:39:18;12.40;99.90
22035;DHT22;11181;51.002;4.356;2023-03-23T08:41:45;12.50;99.90
22035;DHT22;11181;51.002;4.356;2023-03-23T08:44:12;12.60;99.90
22035;DHT22;11181;51.002;4.356;2023-03-23T08:46:39;12.60;99.90
22035;DHT22;11181;51.002;4.356;2023-03-23T08:49:08;12.40;99.90
22035;DHT22;11181;51.002;4.356;2023-03-23T08:51:34;12.40;99.90
22035;DHT22;11181;51.002;4.356;2023-03-23T08:54:02;12.30;99.90
22035;DHT22;11181;51.002;4.356;2023-03-23T08:56:30;12.20;99.90
22035;DHT22;11181;51.002;4.356;2023-03-23T08:58:57;12.30;99.90
22035;DHT22;11181;51.002;4.356;2023-03-23T09:01:23;12.20;99.90
22035;DHT22;11181;51.002;4.356;2023-03-23T09:03:52;12.30;99.90
22035;DHT22;11181;51.002;4.356;2023-03-23T09:06:21;12.30;99.90
22035;DHT22;11181;51.002;4.356;2023-03-23T09:08:48;12.40;99.90
22035;DHT22;11181;51.002;4.356;2023-03-23T09:11:16;12.50;99.90
22035;DHT22;11181;51.002;4.356;2023-03-23T09:13:43;12.50;99.90
22035;DHT22;11181;51.002;4.356;2023-03-23T09:16:09;12.70;99.90
22035;DHT22;11181;51.002;4.356;2023-03-23T09:18:36;12.80;99.90
22035;DHT22;11181;51.002;4.356;2023-03-23T09:21:04;13.00;99.90
22035;DHT22;11181;51.002;4.356;2023-03-23T09:23:33;13.00;99.90
22035;DHT22;11181;51.002;4.356;2023-03-23T09:26:01;13.10;99.90
22035;DHT22;11181;51.002;4.356;2023-03-23T09:28:28;13.30;99.90
22035;DHT22;11181;51.002;4.356;2023-03-23T09:30:56;13.50;99.90
22035;DHT22;11181;51.002;4.356;2023-03-23T09:33:25;13.90;99.90
22035;DHT22;11181;51.002;4.356;2023-03-23T09:35:52;14.10;99.90
22035;DHT22;11181;51.002;4.356;2023-03-23T09:38:19;14.40;99.90
22035;DHT22;11181;51.002;4.356;2023-03-23T09:40:57;14.80;99.90
22035;DHT22;11181;51.002;4.356;2023-03-23T09:43:40;14.80;99.90
22035;DHT22;11181;51.002;4.356;2023-03-23T09:46:24;15.00;99.90
22035;DHT22;11181;51.002;4.356;2023-03-23T09:48:54;15.30;99.90
22035;DHT22;11181;51.002;4.356;2023-03-23T09:51:35;15.40;99.90
22035;DHT22;11181;51.002;4.356;2023-03-23T09:54:10;15.50;99.90
22035;DHT22;11181;51.002;4.356;2023-03-23T09:56:39;15.60;99.90
22035;DHT22;11181;51.002;4.356;2023-03-23T09:59:12;15.80;99.90
22035;DHT22;11181;51.002;4.356;2023-03-23T10:01:43;16.00;99.90
22035;DHT22;11181;51.002;4.356;2023-03-23T10:04:19;15.90;99.90
22035;DHT22;11181;51.002;4.356;2023-03-23T10:06:49;15.80;99.90
22035;DHT22;11181;51.002;4.356;2023-03-23T10:09:18;15.60;99.90
22035;DHT22;11181;51.002;4.356;2023-03-23T10:11:54;15.40;99.90
22035;DHT22;11181;51.002;4.356;2023-03-23T10:14:32;15.40;99.90
22035;DHT22;11181;51.002;4.356;2023-03-23T10:17:16;15.20;99.90
22035;DHT22;11181;51.002;4.356;2023-03-23T10:19:49;15.10;99.90
22035;DHT22;11181;51.002;4.356;2023-03-23T10:22:24;15.30;99.90
22035;DHT22;11181;51.002;4.356;2023-03-23T10:24:59;15.50;99.90
22035;DHT22;11181;51.002;4.356;2023-03-23T10:27:33;15.60;99.90
22035;DHT22;11181;51.002;4.356;2023-03-23T10:30:14;15.40;99.90
22035;DHT22;11181;51.002;4.356;2023-03-23T10:32:46;15.20;99.90
22035;DHT22;11181;51.002;4.356;2023-03-23T10:35:18;15.10;99.90
22035;DHT22;11181;51.002;4.356;2023-03-23T10:37:49;15.00;99.90
22035;DHT22;11181;51.002;4.356;2023-03-23T10:40:19;15.20;99.90
22035;DHT22;11181;51.002;4.356;2023-03-23T10:42:51;15.10;99.90
22035;DHT22;11181;51.002;4.356;2023-03-23T10:45:22;15.30;99.90
22035;DHT22;11181;51.002;4.356;2023-03-23T10:47:53;15.40;99.90
22035;DHT22;11181;51.002;4.356;2023-03-23T10:50:26;15.30;99.90
22035;DHT22;11181;51.002;4.356;2023-03-23T10:52:54;15.30;99.90
22035;DHT22;11181;51.002;4.356;2023-03-23T10:55:24;15.40;99.90
22035;DHT22;11181;51.002;4.356;2023-03-23T10:58:01;15.30;99.90
22035;DHT22;11181;51.002;4.356;2023-03-23T11:00:29;15.30;99.90
22035;DHT22;11181;51.002;4.356;2023-03-23T11:02:59;15.40;99.90
22035;DHT22;11181;51.002;4.356;2023-03-23T11:05:34;15.40;99.90
22035;DHT22;11181;51.002;4.356;2023-03-23T11:08:02;15.50;99.90
22035;DHT22;11181;51.002;4.356;2023-03-23T11:10:36;15.60;99.90
22035;DHT22;11181;51.002;4.356;2023-03-23T11:13:05;15.70;99.90
22035;DHT22;11181;51.002;4.356;2023-03-23T11:15:39;16.10;99.90
22035;DHT22;11181;51.002;4.356;2023-03-23T11:18:10;16.40;99.90
22035;DHT22;11181;51.002;4.356;2023-03-23T11:20:40;16.60;99.90
22035;DHT22;11181;51.002;4.356;2023-03-23T11:23:17;16.90;99.90
22035;DHT22;11181;51.002;4.356;2023-03-23T11:25:57;16.90;99.90
22035;DHT22;11181;51.002;4.356;2023-03-23T11:28:38;17.00;99.90
22035;DHT22;11181;51.002;4.356;2023-03-23T11:31:09;17.20;99.90
22035;DHT22;11181;51.002;4.356;2023-03-23T11:33:51;17.50;99.90
22035;DHT22;11181;51.002;4.356;2023-03-23T11:36:20;17.60;99.90
22035;DHT22;11181;51.002;4.356;2023-03-23T11:38:53;17.50;99.90
22035;DHT22;11181;51.002;4.356;2023-03-23T11:41:23;17.40;99.90
22035;DHT22;11181;51.002;4.356;2023-03-23T11:43:53;17.20;99.90
22035;DHT22;11181;51.002;4.356;2023-03-23T11:46:32;17.20;99.90
22035;DHT22;11181;51.002;4.356;2023-03-23T11:49:02;17.20;99.90
22035;DHT22;11181;51.002;4.356;2023-03-23T11:51:37;17.50;99.90
22035;DHT22;11181;51.002;4.356;2023-03-23T11:54:12;17.80;99.90
22035;DHT22;11181;51.002;4.356;2023-03-23T11:56:43;18.00;99.90
22035;DHT22;11181;51.002;4.356;2023-03-23T11:59:13;18.40;99.90
22035;DHT22;11181;51.002;4.356;2023-03-23T12:01:48;18.70;99.90
22035;DHT22;11181;51.002;4.356;2023-03-23T12:04:33;18.70;99.90
22035;DHT22;11181;51.002;4.356;2023-03-23T12:07:23;18.80;99.90
22035;DHT22;11181;51.002;4.356;2023-03-23T12:10:02;18.70;99.90
22035;DHT22;11181;51.002;4.356;2023-03-23T12:17:54;18.60;99.90
22035;DHT22;11181;51.002;4.356;2023-03-23T12:43:28;19.20;99.90
22035;DHT22;11181;51.002;4.356;2023-03-23T12:46:05;19.30;99.90
22035;DHT22;11181;51.002;4.356;2023-03-23T12:48:39;19.50;99.90
22035;DHT22;11181;51.002;4.356;2023-03-23T12:51:15;19.60;99.90
22035;DHT22;11181;51.002;4.356;2023-03-23T12:53:49;19.70;99.90
22035;DHT22;11181;51.002;4.356;2023-03-23T12:56:23;19.70;99.90
22035;DHT22;11181;51.002;4.356;2023-03-23T12:58:58;19.60;99.90
22035;DHT22;11181;51.002;4.356;2023-03-23T13:01:31;19.80;99.90
22035;DHT22;11181;51.002;4.356;2023-03-23T13:04:02;19.80;99.90
22035;DHT22;11181;51.002;4.356;2023-03-23T13:06:34;19.90;99.90
22035;DHT22;11181;51.002;4.356;2023-03-23T13:09:04;20.00;99.90
22035;DHT22;11181;51.002;4.356;2023-03-23T14:13:58;18.60;99.90
22035;DHT22;11181;51.002;4.356;2023-03-23T14:16:32;18.50;99.90
22035;DHT22;11181;51.002;4.356;2023-03-23T14:19:00;18.30;99.90
22035;DHT22;11181;51.002;4.356;2023-03-23T14:21:33;18.30;99.90
22035;DHT22;11181;51.002;4.356;2023-03-23T14:24:09;18.20;99.90
22035;DHT22;11181;51.002;4.356;2023-03-23T14:26:37;17.80;99.90
22035;DHT22;11181;51.002;4.356;2023-03-23T14:29:06;18.10;99.90
22035;DHT22;11181;51.002;4.356;2023-03-23T14:31:35;18.20;99.90
22035;DHT22;11181;51.002;4.356;2023-03-23T14:34:04;18.40;99.90
22035;DHT22;11181;51.002;4.356;2023-03-23T14:36:35;18.70;99.90
22035;DHT22;11181;51.002;4.356;2023-03-23T14:39:05;18.90;99.90
22035;DHT22;11181;51.002;4.356;2023-03-23T14:41:34;18.90;99.90
22035;DHT22;11181;51.002;4.356;2023-03-23T14:44:03;19.00;99.90
22035;DHT22;11181;51.002;4.356;2023-03-23T14:46:33;19.10;99.90
22035;DHT22;11181;51.002;4.356;2023-03-23T14:49:02;19.00;99.90
22035;DHT22;11181;51.002;4.356;2023-03-23T14:51:30;18.90;99.90
22035;DHT22;11181;51.002;4.356;2023-03-23T14:53:59;18.80;99.90
22035;DHT22;11181;51.002;4.356;2023-03-23T14:56:33;18.60;99.90
22035;DHT22;11181;51.002;4.356;2023-03-23T14:59:04;18.50;99.90
22035;DHT22;11181;51.002;4.356;2023-03-23T15:01:34;18.10;99.90
22035;DHT22;11181;51.002;4.356;2023-03-23T15:04:05;17.90;99.90
22035;DHT22;11181;51.002;4.356;2023-03-23T15:06:34;17.70;99.90
22035;DHT22;11181;51.002;4.356;2023-03-23T15:09:04;17.70;99.90
22035;DHT22;11181;51.002;4.356;2023-03-23T15:11:33;17.80;99.90
22035;DHT22;11181;51.002;4.356;2023-03-23T15:14:07;18.00;99.90
22035;DHT22;11181;51.002;4.356;2023-03-23T15:16:36;17.90;99.90
22035;DHT22;11181;51.002;4.356;2023-03-23T15:19:16;17.80;99.90
22035;DHT22;11181;51.002;4.356;2023-03-23T15:21:48;17.90;99.90
22035;DHT22;11181;51.002;4.356;2023-03-23T15:24:27;18.00;99.90
22035;DHT22;11181;51.002;4.356;2023-03-23T15:27:07;17.80;99.90
22035;DHT22;11181;51.002;4.356;2023-03-23T15:29:50;17.90;99.90
22035;DHT22;11181;51.002;4.356;2023-03-23T15:32:26;17.90;99.90
22035;DHT22;11181;51.002;4.356;2023-03-23T15:34:55;17.80;99.90
22035;DHT22;11181;51.002;4.356;2023-03-23T15:37:26;17.90;99.90
22035;DHT22;11181;51.002;4.356;2023-03-23T15:39:54;18.10;99.90
22035;DHT22;11181;51.002;4.356;2023-03-23T15:42:23;18.00;99.90
22035;DHT22;11181;51.002;4.356;2023-03-23T15:45:16;18.10;99.90
22035;DHT22;11181;51.002;4.356;2023-03-23T15:47:49;17.90;99.90
22035;DHT22;11181;51.002;4.356;2023-03-23T15:50:17;17.60;99.90
22035;DHT22;11181;51.002;4.356;2023-03-23T15:52:46;17.50;99.90
22035;DHT22;11181;51.002;4.356;2023-03-23T15:55:21;17.40;99.90
22035;DHT22;11181;51.002;4.356;2023-03-23T15:57:50;17.30;99.90
22035;DHT22;11181;51.002;4.356;2023-03-23T16:00:19;17.30;99.90
22035;DHT22;11181;51.002;4.356;2023-03-23T16:02:52;17.30;99.90
22035;DHT22;11181;51.002;4.356;2023-03-23T16:05:19;16.90;99.90
22035;DHT22;11181;51.002;4.356;2023-03-23T16:07:47;16.60;99.90
22035;DHT22;11181;51.002;4.356;2023-03-23T16:10:16;16.40;99.90
22035;DHT22;11181;51.002;4.356;2023-03-23T16:12:43;16.30;99.90
22035;DHT22;11181;51.002;4.356;2023-03-23T16:15:10;16.40;99.90
22035;DHT22;11181;51.002;4.356;2023-03-23T16:17:38;16.70;99.90
22035;DHT22;11181;51.002;4.356;2023-03-23T16:20:11;16.70;99.90
22035;DHT22;11181;51.002;4.356;2023-03-23T16:22:39;16.90;99.90
22035;DHT22;11181;51.002;4.356;2023-03-23T16:25:07;17.00;99.90
22035;DHT22;11181;51.002;4.356;2023-03-23T16:27:34;17.20;99.90
22035;DHT22;11181;51.002;4.356;2023-03-23T16:30:01;17.30;99.90
22035;DHT22;11181;51.002;4.356;2023-03-23T16:32:29;17.50;99.90
22035;DHT22;11181;51.002;4.356;2023-03-23T16:34:56;17.40;99.90
22035;DHT22;11181;51.002;4.356;2023-03-23T16:37:25;17.30;99.90
22035;DHT22;11181;51.002;4.356;2023-03-23T16:39:52;17.20;99.90
22035;DHT22;11181;51.002;4.356;2023-03-23T16:42:18;17.10;99.90
22035;DHT22;11181;51.002;4.356;2023-03-23T16:44:45;17.00;99.90
22035;DHT22;11181;51.002;4.356;2023-03-23T16:47:16;16.90;99.90
22035;DHT22;11181;51.002;4.356;2023-03-23T16:49:47;16.80;99.90
22035;DHT22;11181;51.002;4.356;2023-03-23T16:52:16;16.90;99.90
22035;DHT22;11181;51.002;4.356;2023-03-23T16:54:44;16.90;99.90
22035;DHT22;11181;51.002;4.356;2023-03-23T16:57:12;16.90;99.90
22035;DHT22;11181;51.002;4.356;2023-03-23T16:59:39;16.90;99.90
22035;DHT22;11181;51.002;4.356;2023-03-23T17:02:06;16.80;99.90
22035;DHT22;11181;51.002;4.356;2023-03-23T17:04:33;16.90;99.90
22035;DHT22;11181;51.002;4.356;2023-03-23T17:07:00;16.90;99.90
22035;DHT22;11181;51.002;4.356;2023-03-23T17:09:27;16.80;99.90
22035;DHT22;11181;51.002;4.356;2023-03-23T17:11:55;16.80;99.90
22035;DHT22;11181;51.002;4.356;2023-03-23T17:14:22;16.60;99.90
22035;DHT22;11181;51.002;4.356;2023-03-23T17:16:49;16.40;99.90
22035;DHT22;11181;51.002;4.356;2023-03-23T17:19:16;16.30;99.90
22035;DHT22;11181;51.002;4.356;2023-03-23T17:21:43;16.30;99.90